Time;durP1;ratioP1;P1;durP2;ratioP2;P2;SDS_P1;SDS_P2;PMS_P1;PMS_P2;Temp;Humidity;BMP_temperature;BMP_pressure;BME280_temperature;BME280_humidity;BME280_pressure;Samples;Min_cycle;Max_cycle;Signal;HPM_P1;HPM_P2
2021/08/13 00:00:29;;;;;;;18.95;15.77;;;18.30;81.30;;;;;;5015963;28;20551;-75
2021/08/13 00:02:55;;;;;;;18.27;15.60;;;18.30;81.30;;;;;;5003132;28;20041;-78
2021/08/13 00:05:21;;;;;;;17.70;14.82;;;18.30;81.50;;;;;;5003923;28;20046;-76
2021/08/13 00:07:46;;;;;;;19.75;15.57;;;18.20;81.60;;;;;;5002434;28;20401;-76
2021/08/13 00:10:13;;;;;;;19.55;15.13;;;18.10;81.40;;;;;;5007591;28;20045;-76
2021/08/13 00:12:38;;;;;;;19.63;15.43;;;18.10;81.30;;;;;;5001353;28;20034;-76
2021/08/13 00:15:05;;;;;;;20.02;15.27;;;18.10;81.60;;;;;;5002850;28;20031;-78
2021/08/13 00:17:31;;;;;;;20.17;15.27;;;18.10;81.70;;;;;;5003133;28;20038;-77
2021/08/13 00:19:56;;;;;;;22.70;16.75;;;18.10;81.70;;;;;;5024659;28;20037;-78
2021/08/13 00:22:22;;;;;;;19.45;15.57;;;18.10;81.80;;;;;;4998331;28;20421;-76
2021/08/13 00:24:48;;;;;;;21.92;16.52;;;18.00;81.80;;;;;;4999412;28;20359;-78
2021/08/13 00:27:14;;;;;;;23.65;16.85;;;17.90;81.90;;;;;;5020994;28;20045;-76
2021/08/13 00:29:40;;;;;;;19.25;16.67;;;17.90;82.10;;;;;;5003768;28;20029;-76
2021/08/13 00:32:06;;;;;;;19.23;16.45;;;17.90;82.10;;;;;;5002071;28;20034;-76
2021/08/13 00:34:31;;;;;;;19.70;15.82;;;17.90;82.20;;;;;;5008290;28;20041;-77
2021/08/13 00:36:57;;;;;;;21.95;17.05;;;17.80;82.10;;;;;;5008138;28;20410;-77
2021/08/13 00:39:23;;;;;;;21.23;15.15;;;17.80;81.90;;;;;;5009887;28;20481;-75
2021/08/13 00:41:49;;;;;;;19.73;15.73;;;17.80;81.70;;;;;;5009596;28;20512;-76
2021/08/13 00:44:14;;;;;;;16.05;13.95;;;17.80;81.70;;;;;;5012545;28;20049;-80
2021/08/13 00:46:40;;;;;;;19.20;15.15;;;17.80;81.60;;;;;;5020726;28;20056;-76
2021/08/13 00:49:06;;;;;;;17.40;13.88;;;17.70;81.50;;;;;;5031237;28;20025;-77
2021/08/13 00:51:32;;;;;;;18.85;14.15;;;17.70;81.60;;;;;;5022149;28;20600;-78
2021/08/13 00:53:57;;;;;;;16.80;13.68;;;17.80;81.60;;;;;;5018183;28;20477;-76
2021/08/13 00:56:24;;;;;;;18.02;13.73;;;17.70;81.50;;;;;;5015418;28;20040;-77
2021/08/13 00:58:50;;;;;;;18.13;14.45;;;17.70;81.30;;;;;;5028872;28;20029;-78
2021/08/13 01:01:16;;;;;;;18.60;14.35;;;17.70;81.50;;;;;;5017311;28;20042;-76
2021/08/13 01:03:41;;;;;;;18.73;13.98;;;17.70;81.40;;;;;;5020201;28;20034;-75
2021/08/13 01:06:12;;;;;;;19.23;14.02;;;17.60;81.60;;;;;;5016251;28;20030;-77
2021/08/13 01:08:39;;;;;;;17.08;13.00;;;17.60;81.50;;;;;;5014984;28;20091;-77
2021/08/13 01:11:36;;;;;;;19.80;14.45;;;17.60;81.70;;;;;;5024018;28;20480;-77
2021/08/13 01:14:15;;;;;;;19.83;14.25;;;17.60;81.60;;;;;;5030757;28;20488;-75
2021/08/13 01:16:44;;;;;;;19.30;14.18;;;17.60;81.70;;;;;;5027441;28;20039;-75
2021/08/13 01:19:16;;;;;;;20.42;14.52;;;17.50;81.70;;;;;;5024991;28;20519;-77
2021/08/13 01:21:52;;;;;;;19.13;15.13;;;17.50;81.70;;;;;;5018984;28;20036;-76
2021/08/13 01:24:21;;;;;;;16.85;13.82;;;17.50;81.90;;;;;;5018629;28;20072;-75
2021/08/13 01:26:58;;;;;;;19.38;14.43;;;17.40;81.90;;;;;;5029333;28;20078;-75
2021/08/13 01:29:34;;;;;;;20.02;13.95;;;17.40;81.90;;;;;;5022958;28;20029;-79
2021/08/13 01:32:17;;;;;;;17.50;13.85;;;17.40;82.00;;;;;;5026502;28;20041;-75
2021/08/13 01:34:50;;;;;;;19.67;14.63;;;17.40;82.00;;;;;;5022985;28;20034;-76
2021/08/13 01:37:19;;;;;;;19.65;14.27;;;17.40;82.00;;;;;;5015472;28;20072;-75
2021/08/13 01:39:48;;;;;;;17.67;13.23;;;17.30;82.10;;;;;;5020453;28;20026;-75
2021/08/13 01:42:14;;;;;;;18.70;13.95;;;17.20;82.10;;;;;;5026298;28;20026;-79
2021/08/13 01:44:42;;;;;;;19.58;14.52;;;17.20;82.40;;;;;;5021942;28;20112;-76
2021/08/13 01:47:09;;;;;;;17.67;13.07;;;17.10;82.50;;;;;;5027441;28;20042;-75
2021/08/13 01:49:35;;;;;;;18.92;14.52;;;17.10;82.40;;;;;;5025675;28;20464;-78
2021/08/13 01:52:03;;;;;;;19.23;13.77;;;17.10;82.40;;;;;;5032372;28;20036;-75
2021/08/13 01:54:30;;;;;;;19.00;14.20;;;17.00;82.60;;;;;;5028265;28;20033;-76
2021/08/13 01:56:56;;;;;;;17.90;13.85;;;17.00;82.70;;;;;;5037191;28;20038;-75
2021/08/13 01:59:22;;;;;;;19.42;13.88;;;17.00;82.80;;;;;;5021633;28;20079;-76
2021/08/13 02:01:48;;;;;;;17.80;13.70;;;17.00;82.80;;;;;;5015306;28;20042;-76
2021/08/13 02:04:19;;;;;;;21.33;15.00;;;16.90;82.80;;;;;;5025913;28;20136;-75
2021/08/13 02:06:48;;;;;;;17.77;13.77;;;16.90;83.10;;;;;;5019241;28;20045;-76
2021/08/13 02:09:15;;;;;;;20.33;13.93;;;16.90;83.10;;;;;;5027967;28;20033;-76
2021/08/13 02:11:45;;;;;;;18.25;13.68;;;16.90;83.10;;;;;;5026756;28;20451;-76
2021/08/13 02:14:11;;;;;;;20.33;14.65;;;16.80;83.20;;;;;;5034097;28;20481;-75
2021/08/13 02:16:39;;;;;;;17.17;13.43;;;16.80;83.40;;;;;;5022146;28;20037;-77
2021/08/13 02:19:09;;;;;;;18.48;14.80;;;16.80;83.40;;;;;;5017532;28;20045;-76
2021/08/13 02:21:38;;;;;;;20.85;15.05;;;16.80;83.50;;;;;;5027034;28;20038;-75
2021/08/13 02:24:04;;;;;;;19.60;14.02;;;16.80;83.50;;;;;;5022800;28;20033;-76
2021/08/13 02:26:30;;;;;;;18.83;13.43;;;16.80;83.60;;;;;;5022584;28;20041;-80
2021/08/13 02:28:56;;;;;;;18.65;13.45;;;16.70;83.60;;;;;;5015929;28;20029;-77
2021/08/13 02:31:21;;;;;;;19.77;14.23;;;16.70;83.70;;;;;;5030566;28;20437;-75
2021/08/13 02:33:47;;;;;;;19.23;14.70;;;16.60;83.60;;;;;;5019343;28;20040;-75
2021/08/13 02:36:15;;;;;;;20.38;14.25;;;16.60;83.80;;;;;;5034060;28;20030;-75
2021/08/13 02:39:04;;;;;;;18.35;12.73;;;16.60;83.70;;;;;;5033701;28;20481;-76
2021/08/13 02:41:34;;;;;;;18.33;13.50;;;16.60;83.80;;;;;;5004497;28;20070;-76
2021/08/13 02:44:03;;;;;;;17.52;13.52;;;16.60;83.90;;;;;;5010749;28;20137;-76
2021/08/13 02:46:52;;;;;;;18.90;14.10;;;16.60;83.90;;;;;;5012557;28;20036;-76
2021/08/13 02:49:19;;;;;;;18.17;13.25;;;16.60;83.80;;;;;;5009928;28;20062;-77
2021/08/13 02:51:47;;;;;;;20.00;14.25;;;16.60;83.90;;;;;;5008937;28;20064;-75
2021/08/13 02:54:21;;;;;;;15.00;11.98;;;16.60;84.00;;;;;;5014287;28;20385;-74
2021/08/13 02:56:50;;;;;;;18.17;13.75;;;16.50;84.00;;;;;;5020641;28;20096;-74
2021/08/13 02:59:18;;;;;;;16.98;12.23;;;16.50;83.90;;;;;;5008065;28;20032;-75
2021/08/13 03:01:46;;;;;;;17.77;13.15;;;16.50;84.00;;;;;;5003695;28;20367;-74
2021/08/13 03:04:13;;;;;;;18.25;12.75;;;16.50;83.90;;;;;;5008480;28;21057;-75
2021/08/13 03:06:40;;;;;;;17.92;13.20;;;16.50;83.80;;;;;;5004852;28;20038;-75
2021/08/13 03:09:08;;;;;;;17.08;12.30;;;16.50;83.80;;;;;;5010575;28;20454;-77
2021/08/13 03:11:37;;;;;;;15.68;12.30;;;16.50;83.80;;;;;;5005393;28;20109;-76
2021/08/13 03:14:03;;;;;;;17.70;12.50;;;16.40;83.70;;;;;;5005592;28;20026;-75
2021/08/13 03:16:32;;;;;;;16.85;12.75;;;16.40;83.80;;;;;;5002428;28;20081;-75
2021/08/13 03:18:58;;;;;;;19.13;13.27;;;16.40;83.60;;;;;;4999155;28;20061;-75
2021/08/13 03:21:25;;;;;;;16.23;12.20;;;16.40;83.60;;;;;;5003604;28;20030;-76
2021/08/13 03:23:52;;;;;;;17.10;11.48;;;16.40;83.70;;;;;;5006268;28;20202;-76
2021/08/13 03:26:18;;;;;;;16.30;11.50;;;16.30;83.70;;;;;;5005640;28;20054;-80
2021/08/13 03:28:44;;;;;;;16.63;10.80;;;16.30;83.80;;;;;;5014711;28;20540;-75
2021/08/13 03:31:09;;;;;;;16.02;11.68;;;16.30;83.70;;;;;;5005109;28;20125;-80
2021/08/13 03:33:35;;;;;;;18.48;12.02;;;16.30;83.70;;;;;;4994122;28;20392;-76
2021/08/13 03:36:01;;;;;;;15.65;10.43;;;16.30;83.40;;;;;;5000341;28;20030;-76
2021/08/13 03:38:27;;;;;;;14.85;10.52;;;16.30;83.40;;;;;;5000309;28;20027;-75
2021/08/13 03:40:53;;;;;;;15.50;11.15;;;16.30;83.30;;;;;;5014444;28;20027;-76
2021/08/13 03:43:19;;;;;;;16.85;11.13;;;16.20;83.20;;;;;;5006476;28;21042;-78
2021/08/13 03:45:44;;;;;;;15.88;10.20;;;16.20;83.10;;;;;;5009437;28;20062;-75
2021/08/13 03:48:10;;;;;;;15.98;10.68;;;16.30;83.00;;;;;;5016171;28;20029;-76
2021/08/13 03:50:36;;;;;;;16.75;10.95;;;16.30;83.00;;;;;;5016590;28;20030;-75
2021/08/13 03:53:01;;;;;;;13.63;10.43;;;16.30;82.90;;;;;;5020190;28;20034;-75
2021/08/13 03:55:27;;;;;;;14.13;10.75;;;16.30;82.80;;;;;;5019580;28;20038;-75
2021/08/13 03:57:53;;;;;;;14.63;10.68;;;16.30;82.70;;;;;;5009546;28;20037;-75
2021/08/13 04:00:18;;;;;;;15.15;10.45;;;16.30;82.70;;;;;;5020987;28;20072;-79
2021/08/13 04:02:44;;;;;;;14.80;11.15;;;16.30;82.60;;;;;;5001094;28;20038;-75
2021/08/13 04:05:10;;;;;;;15.15;10.45;;;16.20;82.80;;;;;;4992357;28;20053;-76
2021/08/13 04:07:36;;;;;;;17.63;10.13;;;16.20;82.60;;;;;;4993758;28;20034;-75
2021/08/13 04:10:03;;;;;;;14.32;10.05;;;16.30;82.60;;;;;;5011625;28;20076;-76
2021/08/13 04:12:29;;;;;;;13.63;9.85;;;16.20;82.50;;;;;;5007429;28;20025;-77
2021/08/13 04:14:54;;;;;;;16.17;10.60;;;16.30;82.60;;;;;;5019459;28;20040;-76
2021/08/13 04:17:20;;;;;;;14.50;10.18;;;16.30;82.70;;;;;;5011668;28;20507;-80
2021/08/13 04:19:46;;;;;;;15.85;10.50;;;16.30;82.60;;;;;;5004956;28;20058;-75
2021/08/13 04:22:11;;;;;;;15.05;10.18;;;16.30;82.60;;;;;;5016920;28;20110;-75
2021/08/13 04:24:38;;;;;;;15.40;10.88;;;16.30;82.50;;;;;;5008644;28;20050;-75
2021/08/13 04:27:04;;;;;;;14.45;11.05;;;16.40;82.50;;;;;;5024478;28;20045;-75
2021/08/13 04:29:29;;;;;;;14.25;10.48;;;16.40;82.50;;;;;;5003775;28;20037;-76
2021/08/13 04:31:55;;;;;;;15.10;10.30;;;16.40;82.30;;;;;;5014561;28;20393;-78
2021/08/13 04:34:21;;;;;;;15.93;11.38;;;16.50;82.30;;;;;;5000075;28;20038;-81
2021/08/13 04:36:47;;;;;;;14.52;10.30;;;16.40;82.20;;;;;;5000354;28;20045;-77
2021/08/13 04:39:13;;;;;;;14.43;10.32;;;16.40;82.20;;;;;;4996596;28;20030;-76
2021/08/13 04:41:39;;;;;;;17.48;10.70;;;16.40;82.50;;;;;;5000635;28;20021;-75
2021/08/13 04:44:05;;;;;;;16.50;10.20;;;16.40;82.60;;;;;;4998693;28;20046;-79
2021/08/13 04:46:30;;;;;;;15.80;10.80;;;16.40;82.60;;;;;;5003300;28;20458;-75
2021/08/13 04:48:56;;;;;;;17.02;11.82;;;16.40;82.40;;;;;;5002569;28;20033;-76
2021/08/13 04:51:22;;;;;;;16.38;10.95;;;16.40;82.40;;;;;;4992504;28;20050;-80
2021/08/13 04:53:47;;;;;;;16.67;10.95;;;16.40;82.50;;;;;;5004467;28;20402;-76
2021/08/13 04:56:13;;;;;;;18.88;11.27;;;16.50;82.60;;;;;;4993823;28;20470;-77
2021/08/13 04:58:38;;;;;;;16.27;11.93;;;16.50;82.60;;;;;;4998070;28;20037;-77
2021/08/13 05:01:04;;;;;;;16.23;11.02;;;16.50;82.60;;;;;;5004908;28;20056;-75
2021/08/13 05:03:30;;;;;;;18.98;11.70;;;16.50;82.70;;;;;;4999966;28;20061;-75
2021/08/13 05:05:56;;;;;;;18.35;11.90;;;16.60;82.40;;;;;;5002882;28;20472;-76
2021/08/13 05:08:21;;;;;;;19.02;11.98;;;16.60;82.50;;;;;;5006633;28;20036;-76
2021/08/13 05:10:47;;;;;;;16.20;11.75;;;16.60;82.50;;;;;;5012250;28;20034;-76
2021/08/13 05:13:13;;;;;;;17.50;12.95;;;16.60;82.60;;;;;;5005993;28;20046;-75
2021/08/13 05:15:38;;;;;;;17.13;12.65;;;16.60;82.50;;;;;;5007900;28;20057;-77
2021/08/13 05:18:04;;;;;;;17.00;12.85;;;16.70;82.50;;;;;;5001116;28;20057;-77
2021/08/13 05:20:30;;;;;;;18.77;13.50;;;16.70;82.40;;;;;;5015681;28;20120;-77
2021/08/13 05:22:56;;;;;;;18.45;13.35;;;16.80;82.30;;;;;;5011698;28;20676;-80
2021/08/13 05:25:21;;;;;;;19.73;13.13;;;16.80;82.50;;;;;;4997538;28;20030;-75
2021/08/13 05:27:47;;;;;;;19.70;13.90;;;16.80;82.50;;;;;;4996213;28;20092;-76
2021/08/13 05:30:14;;;;;;;22.17;14.13;;;16.80;82.60;;;;;;4997344;28;20409;-77
2021/08/13 05:32:45;;;;;;;18.75;13.23;;;16.90;82.40;;;;;;5002516;28;20472;-76
2021/08/13 05:35:11;;;;;;;19.85;14.23;;;17.00;82.00;;;;;;4990766;28;20048;-75
2021/08/13 05:37:38;;;;;;;19.77;13.88;;;17.00;82.20;;;;;;4998815;28;20045;-76
2021/08/13 05:40:05;;;;;;;22.08;14.60;;;17.00;82.10;;;;;;5003567;28;20073;-79
2021/08/13 05:42:30;;;;;;;20.60;13.95;;;17.00;82.10;;;;;;4998731;28;20018;-75
2021/08/13 05:44:56;;;;;;;20.55;14.07;;;17.10;81.90;;;;;;5003768;28;20373;-75
2021/08/13 05:47:22;;;;;;;20.73;14.55;;;17.10;81.90;;;;;;4997527;28;20069;-76
2021/08/13 05:49:48;;;;;;;20.08;14.88;;;17.10;82.30;;;;;;5014234;28;20037;-76
2021/08/13 05:52:14;;;;;;;23.73;15.80;;;17.10;81.90;;;;;;5005599;28;20398;-76
2021/08/13 05:54:40;;;;;;;21.50;16.38;;;17.10;81.90;;;;;;5006958;28;20171;-76
2021/08/13 05:57:05;;;;;;;20.13;14.98;;;17.10;82.40;;;;;;5016931;28;20037;-78
2021/08/13 05:59:31;;;;;;;22.35;16.02;;;17.20;82.50;;;;;;5009097;28;20030;-76
2021/08/13 06:01:57;;;;;;;20.15;15.10;;;17.20;82.30;;;;;;4999739;28;20034;-77
2021/08/13 06:04:22;;;;;;;22.40;16.27;;;17.30;82.30;;;;;;4992537;28;20042;-80
2021/08/13 06:06:48;;;;;;;22.42;16.02;;;17.50;81.50;;;;;;4999596;28;20038;-78
2021/08/13 06:09:14;;;;;;;21.27;16.52;;;17.50;81.40;;;;;;4993527;28;20050;-76
2021/08/13 06:11:40;;;;;;;26.85;16.50;;;17.50;81.70;;;;;;5007139;28;20120;-78
2021/08/13 06:14:06;;;;;;;22.10;16.40;;;17.70;81.40;;;;;;4997577;28;20065;-78
2021/08/13 06:16:31;;;;;;;19.65;15.80;;;17.80;80.90;;;;;;4993981;28;20026;-77
2021/08/13 06:18:57;;;;;;;21.52;15.43;;;17.80;80.90;;;;;;5006782;28;20108;-77
2021/08/13 06:21:23;;;;;;;20.58;15.60;;;18.00;80.90;;;;;;5004861;28;21438;-77
2021/08/13 06:23:49;;;;;;;21.35;15.35;;;18.10;80.20;;;;;;5008042;28;20125;-77
2021/08/13 06:26:14;;;;;;;22.20;15.35;;;18.10;79.70;;;;;;4996684;28;20557;-75
2021/08/13 06:28:40;;;;;;;25.77;15.85;;;18.20;79.60;;;;;;4997104;28;20038;-77
2021/08/13 06:31:06;;;;;;;21.15;14.43;;;18.10;80.20;;;;;;4994250;28;20038;-79
2021/08/13 06:33:31;;;;;;;18.73;14.45;;;18.10;80.00;;;;;;4994232;28;20057;-77
2021/08/13 06:35:58;;;;;;;20.00;14.15;;;18.30;79.70;;;;;;5003599;28;20026;-76
2021/08/13 06:38:23;;;;;;;22.52;15.07;;;18.40;79.50;;;;;;4995175;28;20049;-77
2021/08/13 06:40:49;;;;;;;20.58;14.50;;;18.60;78.80;;;;;;4995084;28;20500;-76
2021/08/13 06:43:15;;;;;;;19.95;13.15;;;18.70;78.50;;;;;;4997291;28;20049;-77
2021/08/13 06:45:40;;;;;;;22.00;14.90;;;18.90;78.20;;;;;;5003115;28;20458;-77
2021/08/13 06:48:06;;;;;;;18.05;14.52;;;18.90;78.00;;;;;;5004124;28;20022;-79
2021/08/13 06:50:32;;;;;;;20.35;14.55;;;19.00;77.90;;;;;;5003671;28;20068;-76
2021/08/13 06:52:58;;;;;;;22.15;14.60;;;19.10;77.30;;;;;;5005720;28;20049;-76
2021/08/13 06:55:24;;;;;;;22.27;14.27;;;19.10;77.60;;;;;;5007486;28;20038;-77
2021/08/13 06:57:49;;;;;;;19.15;14.38;;;19.00;77.80;;;;;;5007201;28;20030;-78
2021/08/13 07:00:16;;;;;;;20.23;14.32;;;19.00;78.10;;;;;;4996426;28;20038;-76
2021/08/13 07:02:47;;;;;;;21.50;14.63;;;19.10;77.80;;;;;;5006298;28;20030;-77
2021/08/13 07:05:14;;;;;;;17.08;12.90;;;19.20;77.20;;;;;;4992413;28;20026;-77
2021/08/13 07:07:40;;;;;;;16.75;12.85;;;19.30;76.50;;;;;;5007463;28;20049;-77
2021/08/13 07:10:08;;;;;;;15.85;12.57;;;19.50;76.40;;;;;;4996986;28;20065;-79
2021/08/13 07:12:34;;;;;;;16.42;11.73;;;19.60;76.20;;;;;;5010482;28;20045;-77
2021/08/13 07:15:00;;;;;;;17.48;11.73;;;19.50;75.80;;;;;;5000295;28;20029;-80
2021/08/13 07:17:26;;;;;;;17.05;10.88;;;19.50;76.10;;;;;;5003460;28;20081;-80
2021/08/13 07:19:52;;;;;;;15.18;11.65;;;19.50;74.60;;;;;;4999859;28;20034;-79
2021/08/13 07:22:17;;;;;;;15.98;11.68;;;19.50;75.00;;;;;;4998406;28;20034;-76
2021/08/13 07:24:43;;;;;;;15.40;10.45;;;19.60;74.90;;;;;;4997674;28;20374;-77
2021/08/13 07:27:09;;;;;;;15.80;10.95;;;19.60;74.60;;;;;;5027626;28;20044;-76
2021/08/13 07:29:34;;;;;;;16.00;11.02;;;19.50;74.30;;;;;;5001285;28;20037;-77
2021/08/13 07:32:00;;;;;;;16.77;11.13;;;19.70;74.50;;;;;;5016334;28;20038;-76
2021/08/13 07:34:26;;;;;;;15.43;11.32;;;19.80;73.20;;;;;;4998655;28;20523;-76
2021/08/13 07:36:52;;;;;;;19.23;11.63;;;20.00;73.10;;;;;;5008155;28;20040;-77
2021/08/13 07:39:17;;;;;;;16.58;11.48;;;19.90;72.70;;;;;;5000678;28;20386;-75
2021/08/13 07:41:43;;;;;;;16.88;10.93;;;19.90;72.40;;;;;;5003242;28;20030;-75
2021/08/13 07:44:09;;;;;;;16.30;11.10;;;19.70;72.90;;;;;;5002025;28;20383;-77
2021/08/13 07:46:34;;;;;;;16.98;10.60;;;19.80;71.70;;;;;;5006024;28;20084;-78
2021/08/13 07:49:00;;;;;;;20.05;11.63;;;19.70;72.80;;;;;;5003967;28;20068;-77
2021/08/13 07:51:26;;;;;;;17.90;10.55;;;19.60;73.10;;;;;;5017607;28;20461;-73
2021/08/13 07:53:53;;;;;;;17.45;10.18;;;19.60;72.60;;;;;;5028567;28;20038;-74
2021/08/13 07:56:19;;;;;;;15.68;10.38;;;19.60;72.90;;;;;;5020786;28;20053;-75
2021/08/13 07:58:45;;;;;;;15.02;10.63;;;19.80;72.50;;;;;;5024835;28;20080;-74
2021/08/13 08:01:11;;;;;;;14.10;9.93;;;19.80;72.30;;;;;;5022755;28;20041;-74
2021/08/13 08:03:37;;;;;;;18.48;10.85;;;19.90;72.90;;;;;;5019124;28;20050;-74
2021/08/13 08:06:05;;;;;;;15.75;10.02;;;20.10;71.40;;;;;;5026629;28;20040;-72
2021/08/13 08:08:32;;;;;;;16.40;10.10;;;20.00;72.10;;;;;;5028406;28;20129;-75
2021/08/13 08:10:57;;;;;;;15.75;10.20;;;20.10;71.90;;;;;;5027696;28;20544;-73
2021/08/13 08:13:23;;;;;;;17.60;10.45;;;20.20;71.60;;;;;;5023395;28;20124;-72
2021/08/13 08:15:49;;;;;;;17.42;9.38;;;20.40;71.40;;;;;;5021671;28;20098;-73
2021/08/13 08:18:14;;;;;;;16.90;9.73;;;20.50;71.50;;;;;;5026133;28;20121;-73
2021/08/13 08:20:40;;;;;;;14.93;10.38;;;20.60;70.30;;;;;;5035045;28;20095;-73
2021/08/13 08:23:06;;;;;;;15.00;9.90;;;20.60;69.80;;;;;;5029154;28;20596;-73
2021/08/13 08:25:32;;;;;;;16.45;10.05;;;20.70;70.20;;;;;;5029112;28;20040;-73
2021/08/13 08:27:58;;;;;;;14.07;9.73;;;21.00;69.40;;;;;;5023954;28;20038;-74
2021/08/13 08:30:24;;;;;;;19.33;10.23;;;21.10;68.70;;;;;;5031263;28;20374;-74
2021/08/13 08:32:50;;;;;;;16.00;10.40;;;21.00;68.20;;;;;;5025384;28;20067;-74
2021/08/13 08:35:15;;;;;;;16.20;10.73;;;20.90;68.30;;;;;;5025220;28;20497;-74
2021/08/13 08:37:58;;;;;;;15.95;11.10;;;20.70;69.40;;;;;;5025308;28;20087;-73
2021/08/13 08:40:28;;;;;;;15.45;10.35;;;20.70;69.60;;;;;;5028938;28;20053;-73
2021/08/13 08:43:00;;;;;;;16.20;10.52;;;20.90;69.20;;;;;;5026695;28;20033;-71
2021/08/13 08:45:27;;;;;;;17.45;10.93;;;21.00;68.90;;;;;;5021745;28;20029;-76
2021/08/13 08:47:57;;;;;;;15.73;10.27;;;21.00;69.30;;;;;;5030188;28;20037;-73
2021/08/13 08:50:24;;;;;;;15.88;10.70;;;20.90;69.70;;;;;;5030437;28;20119;-71
2021/08/13 08:52:51;;;;;;;14.70;10.30;;;21.20;69.20;;;;;;5030508;28;20031;-69
2021/08/13 08:55:17;;;;;;;17.63;9.70;;;21.50;68.20;;;;;;5027804;28;20099;-69
2021/08/13 08:57:44;;;;;;;16.17;9.82;;;21.80;67.10;;;;;;5024221;28;20033;-69
2021/08/13 09:00:11;;;;;;;14.77;9.40;;;22.00;67.40;;;;;;5028386;28;20030;-69
2021/08/13 09:02:41;;;;;;;16.48;10.27;;;22.20;66.50;;;;;;5026941;28;20931;-71
2021/08/13 09:05:07;;;;;;;18.65;10.27;;;22.20;65.60;;;;;;5027708;28;20021;-68
2021/08/13 09:07:32;;;;;;;17.25;10.60;;;22.30;64.30;;;;;;5024589;28;20088;-69
2021/08/13 09:10:00;;;;;;;12.95;8.93;;;22.50;64.60;;;;;;5028216;28;20432;-68
2021/08/13 09:12:26;;;;;;;18.30;10.40;;;22.80;64.90;;;;;;5007081;28;20034;-69
2021/08/13 09:14:52;;;;;;;17.40;9.30;;;23.10;63.40;;;;;;5008612;28;20382;-69
2021/08/13 09:17:26;;;;;;;17.92;9.75;;;23.30;62.90;;;;;;5013979;28;20040;-68
2021/08/13 09:19:53;;;;;;;16.17;8.75;;;23.20;62.50;;;;;;5014451;28;20485;-69
2021/08/13 09:22:20;;;;;;;14.68;8.60;;;23.10;62.90;;;;;;5017306;28;20503;-69
2021/08/13 09:24:51;;;;;;;15.07;9.23;;;23.10;62.50;;;;;;5016617;28;20061;-68
2021/08/13 09:27:28;;;;;;;18.27;9.40;;;22.70;63.10;;;;;;5005834;28;20038;-68
2021/08/13 09:30:17;;;;;;;15.50;8.40;;;22.80;63.60;;;;;;5009032;28;20117;-69
2021/08/13 09:32:55;;;;;;;14.98;9.07;;;23.10;62.40;;;;;;5006949;28;20116;-68
2021/08/13 09:35:39;;;;;;;16.70;8.82;;;23.10;62.90;;;;;;5013310;28;20055;-70
2021/08/13 09:38:14;;;;;;;14.55;7.50;;;23.20;61.50;;;;;;4996465;28;21143;-69
2021/08/13 09:40:45;;;;;;;13.20;7.32;;;23.20;61.60;;;;;;4991901;28;20038;-68
2021/08/13 09:43:11;;;;;;;14.57;8.05;;;23.50;62.50;;;;;;4994496;28;20044;-72
2021/08/13 09:45:37;;;;;;;12.02;7.45;;;23.50;61.30;;;;;;4999358;28;20030;-69
2021/08/13 09:48:03;;;;;;;14.93;8.10;;;23.40;62.30;;;;;;5001600;28;20072;-69
2021/08/13 09:50:40;;;;;;;16.20;7.65;;;23.60;62.50;;;;;;5000911;28;20037;-68
2021/08/13 09:53:14;;;;;;;11.10;6.50;;;24.00;59.00;;;;;;5001795;28;20044;-69
2021/08/13 09:55:41;;;;;;;16.13;5.75;;;23.90;60.50;;;;;;5002693;28;20042;-68
2021/08/13 09:58:09;;;;;;;12.93;5.35;;;23.90;59.00;;;;;;5006508;28;20026;-69
2021/08/13 10:00:43;;;;;;;9.68;4.88;;;23.80;59.60;;;;;;5024725;28;20030;-68
2021/08/13 10:03:10;;;;;;;12.00;4.72;;;23.20;59.80;;;;;;5019599;28;20460;-69
2021/08/13 10:05:36;;;;;;;11.50;4.55;;;23.30;58.80;;;;;;5017222;28;20397;-69
2021/08/13 10:08:03;;;;;;;9.60;4.03;;;23.20;57.60;;;;;;5024126;28;20022;-70
2021/08/13 10:10:30;;;;;;;13.45;4.10;;;23.30;57.80;;;;;;5024955;28;20033;-69
2021/08/13 10:12:56;;;;;;;11.40;4.53;;;23.40;56.40;;;;;;5012661;28;20057;-69
2021/08/13 10:15:33;;;;;;;12.38;4.80;;;23.50;55.90;;;;;;5017751;28;20021;-68
2021/08/13 10:18:01;;;;;;;12.13;4.45;;;23.60;56.00;;;;;;5023663;28;20481;-73
2021/08/13 10:20:31;;;;;;;12.10;3.88;;;23.40;56.60;;;;;;5033660;28;20036;-69
2021/08/13 10:22:57;;;;;;;9.57;3.28;;;23.70;58.00;;;;;;5013988;28;20052;-69
2021/08/13 10:25:23;;;;;;;11.60;4.20;;;23.70;56.20;;;;;;5021676;28;20037;-70
2021/08/13 10:27:49;;;;;;;10.93;3.75;;;23.60;55.50;;;;;;5017547;28;20051;-70
2021/08/13 10:30:19;;;;;;;10.75;3.95;;;23.50;56.50;;;;;;5020457;28;20060;-69
2021/08/13 10:32:50;;;;;;;10.05;3.85;;;23.50;56.30;;;;;;5018371;28;20033;-68
2021/08/13 10:35:17;;;;;;;12.07;3.80;;;23.60;56.00;;;;;;5024364;28;20112;-69
2021/08/13 10:37:43;;;;;;;10.15;3.40;;;23.80;56.00;;;;;;5018698;28;20125;-70
2021/08/13 10:40:11;;;;;;;9.05;3.50;;;23.70;55.10;;;;;;5022646;28;20041;-74
2021/08/13 10:42:41;;;;;;;10.40;3.47;;;23.90;55.30;;;;;;5019757;28;20070;-69
2021/08/13 10:45:09;;;;;;;9.23;3.78;;;24.30;55.00;;;;;;5023187;28;20030;-70
2021/08/13 10:47:40;;;;;;;10.95;3.42;;;24.50;54.50;;;;;;5030991;28;20048;-69
2021/08/13 10:50:07;;;;;;;10.48;3.35;;;24.40;54.10;;;;;;5025726;28;20026;-69
2021/08/13 10:52:40;;;;;;;10.95;3.75;;;24.60;53.00;;;;;;5029295;28;20029;-69
2021/08/13 10:55:07;;;;;;;9.95;3.45;;;24.80;53.00;;;;;;5027974;28;20912;-73
2021/08/13 10:57:48;;;;;;;12.00;3.38;;;25.00;51.70;;;;;;5023353;28;20080;-69
2021/08/13 11:00:15;;;;;;;12.32;3.58;;;25.10;52.20;;;;;;5020971;28;20156;-68
2021/08/13 11:03:01;;;;;;;11.45;3.35;;;25.10;54.30;;;;;;5021391;28;20026;-68
2021/08/13 11:05:55;;;;;;;10.77;3.38;;;24.70;53.20;;;;;;5019983;28;20097;-68
2021/08/13 11:08:22;;;;;;;9.70;3.83;;;24.70;51.60;;;;;;4995159;28;20035;-68
2021/08/13 11:10:47;;;;;;;12.02;3.38;;;24.70;52.30;;;;;;4997687;28;20027;-68
2021/08/13 11:13:17;;;;;;;9.30;3.88;;;25.00;52.10;;;;;;5007029;28;20060;-69
2021/08/13 11:15:44;;;;;;;8.52;2.92;;;25.00;51.00;;;;;;5000658;28;20038;-69
2021/08/13 11:18:36;;;;;;;14.15;4.00;;;24.90;53.10;;;;;;5007234;28;20026;-69
2021/08/13 11:21:11;;;;;;;9.98;4.22;;;25.30;51.90;;;;;;5007667;28;20390;-71
2021/08/13 11:24:09;;;;;;;11.65;4.03;;;25.10;51.50;;;;;;5010105;28;20393;-70
2021/08/13 11:26:47;;;;;;;9.82;3.55;;;25.20;52.10;;;;;;4997032;28;20042;-74
2021/08/13 11:29:34;;;;;;;11.25;4.10;;;25.80;50.80;;;;;;5002759;28;20048;-71
2021/08/13 11:32:14;;;;;;;10.05;3.65;;;25.80;50.40;;;;;;5001156;28;20029;-71
2021/08/13 11:34:49;;;;;;;11.40;3.55;;;25.60;49.60;;;;;;5002806;28;20038;-72
2021/08/13 11:37:45;;;;;;;8.82;3.28;;;25.90;50.10;;;;;;5031301;28;20038;-69
2021/08/13 11:40:13;;;;;;;12.85;3.42;;;25.50;50.50;;;;;;5027268;28;20026;-69
2021/08/13 11:42:49;;;;;;;10.05;3.60;;;25.30;50.90;;;;;;5022476;28;20038;-68
2021/08/13 11:45:16;;;;;;;11.32;3.97;;;25.60;51.10;;;;;;5028966;28;20037;-70
2021/08/13 11:47:51;;;;;;;10.02;3.70;;;25.60;49.40;;;;;;5025018;28;20048;-70
2021/08/13 11:50:18;;;;;;;10.82;4.30;;;25.60;50.70;;;;;;5023782;28;20045;-69
2021/08/13 11:52:48;;;;;;;10.18;4.38;;;25.60;52.00;;;;;;5023574;28;20034;-71
2021/08/13 11:55:25;;;;;;;10.75;4.88;;;25.80;51.80;;;;;;5019311;28;20034;-69
2021/08/13 11:57:53;;;;;;;11.95;4.43;;;25.80;50.00;;;;;;5022757;28;20113;-69
2021/08/13 12:00:26;;;;;;;11.65;3.47;;;25.40;50.70;;;;;;5023123;28;20072;-69
2021/08/13 12:03:02;;;;;;;10.10;4.10;;;25.60;50.80;;;;;;5023794;28;20096;-68
2021/08/13 12:05:39;;;;;;;10.23;3.80;;;25.80;50.40;;;;;;5022332;28;20048;-70
2021/08/13 12:08:13;;;;;;;10.55;4.25;;;25.80;49.60;;;;;;5021568;28;20107;-73
2021/08/13 12:10:45;;;;;;;10.77;3.88;;;26.30;47.30;;;;;;5024284;28;20041;-69
2021/08/13 12:13:11;;;;;;;9.43;3.90;;;26.50;47.30;;;;;;5017979;28;20060;-70
2021/08/13 12:15:38;;;;;;;10.50;4.00;;;26.40;46.00;;;;;;5022894;28;20135;-74
2021/08/13 12:18:05;;;;;;;11.18;3.85;;;25.80;47.00;;;;;;5013229;28;20474;-71
2021/08/13 12:20:32;;;;;;;9.05;3.80;;;26.00;47.70;;;;;;5002456;28;20030;-69
2021/08/13 12:23:06;;;;;;;11.90;3.40;;;26.10;47.70;;;;;;5000669;28;20037;-72
2021/08/13 12:25:33;;;;;;;;;;;26.50;47.20;;;;;;5012818;28;20025;-70
2021/08/13 12:27:59;;;;;;;10.73;3.45;;;26.60;46.70;;;;;;4997842;28;19930;-73
2021/08/13 12:30:25;;;;;;;10.55;3.55;;;26.70;46.60;;;;;;5002807;28;20125;-77
2021/08/13 12:32:52;;;;;;;10.00;3.90;;;26.10;46.90;;;;;;5001725;28;20061;-70
2021/08/13 12:35:19;;;;;;;10.70;4.20;;;26.00;48.00;;;;;;5013697;28;20045;-70